createdAt,value
2023-04-29T00:01:05.478Z,59.40
2023-04-29T00:03:33.199Z,60.10
2023-04-29T00:06:01.110Z,59.80
2023-04-29T00:08:28.304Z,60.20
2023-04-29T00:10:55.534Z,60.20
2023-04-29T00:13:22.542Z,60.30
2023-04-29T00:15:49.715Z,60.80
2023-04-29T00:18:16.516Z,61.10
2023-04-29T00:20:43.592Z,61.20
2023-04-29T00:23:11.143Z,61.00
2023-04-29T00:25:38.900Z,61.50
2023-04-29T00:28:06.162Z,61.90
2023-04-29T00:30:33.650Z,62.30
2023-04-29T00:33:00.585Z,61.70
2023-04-29T00:35:27.535Z,61.30
2023-04-29T00:37:54.536Z,61.80
2023-04-29T00:40:21.568Z,61.90
2023-04-29T00:42:48.365Z,61.90
2023-04-29T00:45:15.173Z,61.60
2023-04-29T00:47:42.212Z,61.90
2023-04-29T00:50:09.294Z,62.40
2023-04-29T00:52:37.808Z,62.50
2023-04-29T00:55:05.774Z,62.50
2023-04-29T00:57:34.355Z,62.40
2023-04-29T01:00:01.371Z,62.70
2023-04-29T01:02:28.729Z,62.00
2023-04-29T01:04:55.707Z,62.90
2023-04-29T01:07:37.117Z,63.10
2023-04-29T01:10:10.429Z,63.30
2023-04-29T01:12:40.741Z,63.00
2023-04-29T01:15:15.483Z,63.10
2023-04-29T01:17:49.197Z,63.10
2023-04-29T01:20:18.200Z,63.10
2023-04-29T01:22:45.132Z,63.30
2023-04-29T01:25:13.103Z,63.40
2023-04-29T01:28:29.686Z,63.40
2023-04-29T01:31:01.093Z,64.10
2023-04-29T01:33:31.238Z,64.30
2023-04-29T01:36:17.693Z,64.50
2023-04-29T01:38:52.869Z,64.80
2023-04-29T01:41:28.458Z,64.90
2023-04-29T01:44:04.382Z,64.80
2023-04-29T01:46:31.629Z,65.50
2023-04-29T01:48:58.828Z,65.70
2023-04-29T01:51:25.734Z,65.90
2023-04-29T01:53:52.655Z,65.80
2023-04-29T01:56:19.598Z,66.00
2023-04-29T01:58:58.203Z,66.60
2023-04-29T02:01:37.471Z,66.70
2023-04-29T02:04:04.544Z,67.40
2023-04-29T02:06:34.528Z,67.70
2023-04-29T02:09:04.504Z,67.60
2023-04-29T02:11:33.329Z,68.00
2023-04-29T02:14:00.088Z,67.80
2023-04-29T02:16:29.977Z,68.30
2023-04-29T02:19:03.240Z,69.00
2023-04-29T02:21:30.178Z,68.50
2023-04-29T02:23:56.949Z,68.80
2023-04-29T02:26:24.945Z,69.40
2023-04-29T02:28:52.706Z,69.40
2023-04-29T02:31:21.349Z,69.10
2023-04-29T02:33:48.884Z,69.00
2023-04-29T02:36:15.858Z,70.80
2023-04-29T02:38:43.838Z,70.60
2023-04-29T02:41:10.629Z,72.50
2023-04-29T02:43:37.456Z,72.20
2023-04-29T02:46:04.865Z,71.30
2023-04-29T02:48:31.797Z,72.90
2023-04-29T02:50:58.841Z,72.50
2023-04-29T02:53:25.578Z,73.10
2023-04-29T02:55:52.380Z,73.60
2023-04-29T02:58:19.266Z,73.50
2023-04-29T03:00:46.096Z,76.00
2023-04-29T03:03:13.452Z,76.20
2023-04-29T03:05:40.893Z,76.20
2023-04-29T03:08:09.529Z,76.50
2023-04-29T03:10:36.521Z,76.20
2023-04-29T03:13:03.866Z,75.60
2023-04-29T03:15:32.229Z,76.20
2023-04-29T03:18:01.866Z,77.40
2023-04-29T03:20:30.061Z,77.50
2023-04-29T03:22:57.113Z,76.90
2023-04-29T03:25:24.073Z,76.80
2023-04-29T03:27:51.644Z,76.00
2023-04-29T03:30:18.513Z,75.80
2023-04-29T03:32:50.870Z,78.60
2023-04-29T03:35:17.939Z,77.60
2023-04-29T03:38:13.840Z,79.00
2023-04-29T03:40:40.809Z,79.00
2023-04-29T03:43:09.358Z,80.20
2023-04-29T03:45:36.338Z,79.80
2023-04-29T03:48:04.560Z,79.00
2023-04-29T03:50:31.996Z,80.20
2023-04-29T03:52:58.822Z,80.40
2023-04-29T03:55:26.091Z,80.70
2023-04-29T03:57:53.074Z,81.30
2023-04-29T04:00:20.048Z,81.00
2023-04-29T04:02:53.076Z,80.00
2023-04-29T04:05:21.045Z,81.50
2023-04-29T04:07:53.231Z,81.60
2023-04-29T04:10:38.721Z,81.10
2023-04-29T04:13:15.576Z,82.40
2023-04-29T04:15:43.113Z,83.00
2023-04-29T04:18:10.013Z,83.00
2023-04-29T04:20:37.318Z,82.80
2023-04-29T04:23:04.527Z,83.40
2023-04-29T04:25:32.205Z,83.00
2023-04-29T04:28:11.989Z,83.30
2023-04-29T04:30:59.261Z,82.70
2023-04-29T04:33:26.317Z,83.20
2023-04-29T04:35:53.235Z,83.90
2023-04-29T04:38:20.106Z,84.70
2023-04-29T04:40:47.039Z,83.60
2023-04-29T04:43:32.102Z,83.70
2023-04-29T04:45:59.095Z,83.80
2023-04-29T04:48:26.190Z,84.50
2023-04-29T04:50:54.075Z,84.70
2023-04-29T04:53:22.507Z,84.70
2023-04-29T04:56:03.609Z,84.40
2023-04-29T04:58:32.935Z,81.50
2023-04-29T05:01:00.214Z,79.40
2023-04-29T05:03:27.186Z,78.00
2023-04-29T05:05:55.422Z,77.40
2023-04-29T05:08:22.245Z,76.20
2023-04-29T05:10:49.347Z,76.40
2023-04-29T05:13:16.541Z,75.60
2023-04-29T05:15:44.540Z,76.00
2023-04-29T05:18:12.191Z,76.00
2023-04-29T05:20:41.262Z,75.80
2023-04-29T05:23:08.864Z,77.50
2023-04-29T05:25:39.188Z,78.10
2023-04-29T05:28:07.273Z,76.30
2023-04-29T05:30:37.962Z,75.00
2023-04-29T05:33:06.058Z,74.40
2023-04-29T05:35:33.105Z,72.30
2023-04-29T05:38:00.503Z,71.40
2023-04-29T05:40:38.619Z,70.00
2023-04-29T05:43:24.606Z,68.70
2023-04-29T05:45:53.252Z,67.20
2023-04-29T05:48:20.053Z,65.60
2023-04-29T05:50:48.258Z,64.30
2023-04-29T05:53:15.443Z,60.70
2023-04-29T05:55:45.204Z,60.00
2023-04-29T05:58:12.876Z,57.90
2023-04-29T06:00:39.740Z,57.00
2023-04-29T06:03:13.372Z,57.20
2023-04-29T06:05:41.069Z,56.30
2023-04-29T06:08:32.428Z,56.00
2023-04-29T06:11:05.891Z,54.40
2023-04-29T06:13:32.964Z,52.70
2023-04-29T06:15:59.842Z,53.80
2023-04-29T06:18:30.317Z,53.10
2023-04-29T06:20:58.698Z,53.10
2023-04-29T06:23:25.538Z,53.50
2023-04-29T06:25:53.307Z,53.20
2023-04-29T06:28:21.718Z,53.60
2023-04-29T06:30:48.724Z,53.30
2023-04-29T06:33:15.944Z,52.80
2023-04-29T06:35:43.007Z,53.00
2023-04-29T06:38:32.535Z,53.00
2023-04-29T06:41:20.837Z,53.10
2023-04-29T06:44:01.056Z,52.90
2023-04-29T06:46:39.227Z,52.40
2023-04-29T06:49:19.222Z,52.50
2023-04-29T06:51:47.350Z,52.50
2023-04-29T06:54:14.156Z,53.00
2023-04-29T06:56:41.784Z,52.30
2023-04-29T06:59:10.695Z,51.50
2023-04-29T07:01:37.560Z,51.10
2023-04-29T07:04:05.436Z,50.80
2023-04-29T07:06:32.425Z,51.50
2023-04-29T07:08:59.475Z,51.30
2023-04-29T07:11:27.307Z,51.00
2023-04-29T07:13:54.021Z,51.10
2023-04-29T07:16:26.598Z,50.80
2023-04-29T07:18:53.948Z,51.00
2023-04-29T07:21:20.841Z,51.00
2023-04-29T07:23:48.257Z,50.80
2023-04-29T07:26:16.105Z,50.80
2023-04-29T07:28:45.697Z,51.00
2023-04-29T07:31:12.692Z,50.70
2023-04-29T07:33:39.881Z,50.80
2023-04-29T07:36:10.034Z,50.30
2023-04-29T07:38:37.050Z,49.90
2023-04-29T07:41:06.780Z,50.30
2023-04-29T07:43:34.056Z,50.90
2023-04-29T07:46:01.135Z,50.30
2023-04-29T07:48:27.946Z,50.30
2023-04-29T07:50:55.185Z,50.40
2023-04-29T07:53:22.221Z,50.00
2023-04-29T07:55:50.863Z,49.20
2023-04-29T07:58:19.056Z,49.20
2023-04-29T08:00:47.390Z,49.20
2023-04-29T08:03:14.878Z,49.10
2023-04-29T08:05:43.519Z,49.60
2023-04-29T08:08:14.256Z,49.90
2023-04-29T08:10:43.205Z,50.10
2023-04-29T08:13:10.035Z,48.50
2023-04-29T08:15:36.881Z,48.20
2023-04-29T08:18:03.808Z,47.70
2023-04-29T08:20:30.575Z,47.30
2023-04-29T08:22:58.865Z,46.70
2023-04-29T08:25:27.327Z,45.50
2023-04-29T08:27:54.157Z,44.50
2023-04-29T08:30:21.110Z,45.50
2023-04-29T08:32:48.211Z,45.50
2023-04-29T08:35:15.219Z,45.00
2023-04-29T08:37:42.068Z,45.20
2023-04-29T08:40:09.528Z,45.70
2023-04-29T08:42:36.912Z,46.00
2023-04-29T08:45:04.304Z,46.10
2023-04-29T08:47:31.832Z,46.10
2023-04-29T08:50:02.449Z,45.40
2023-04-29T08:52:29.419Z,45.30
2023-04-29T08:54:56.971Z,45.80
2023-04-29T08:57:25.745Z,46.10
2023-04-29T08:59:52.574Z,46.30
2023-04-29T09:02:21.504Z,46.30
2023-04-29T09:05:07.433Z,45.60
2023-04-29T09:07:35.497Z,46.00
2023-04-29T09:10:04.176Z,45.50
2023-04-29T09:12:31.044Z,46.10
2023-04-29T09:14:59.742Z,46.50
2023-04-29T09:17:43.138Z,46.40
2023-04-29T09:20:22.149Z,46.40
2023-04-29T09:22:50.142Z,45.70
2023-04-29T09:25:17.080Z,45.70
2023-04-29T09:27:44.357Z,46.10
2023-04-29T09:30:12.734Z,46.10
2023-04-29T09:32:39.876Z,46.00
2023-04-29T09:35:26.435Z,46.30
2023-04-29T09:37:56.831Z,46.30
2023-04-29T09:40:36.505Z,45.80
2023-04-29T09:43:14.549Z,45.80
2023-04-29T09:45:45.295Z,45.90
2023-04-29T09:48:12.498Z,46.50
2023-04-29T09:50:40.739Z,46.30
2023-04-29T09:53:09.346Z,46.00
2023-04-29T09:55:36.610Z,45.40
2023-04-29T09:58:03.539Z,46.30
2023-04-29T10:00:32.349Z,46.00
2023-04-29T10:03:00.842Z,46.00
2023-04-29T10:05:29.588Z,46.00
2023-04-29T10:07:57.914Z,45.50
2023-04-29T10:10:25.635Z,45.80
2023-04-29T10:12:53.713Z,45.00
2023-04-29T10:15:23.759Z,45.10
2023-04-29T10:17:54.693Z,44.90
2023-04-29T10:20:24.006Z,43.80
2023-04-29T10:22:52.156Z,44.00
2023-04-29T10:25:20.116Z,44.20
2023-04-29T10:27:47.433Z,45.10
2023-04-29T10:30:14.831Z,44.40
2023-04-29T10:32:50.446Z,44.00
2023-04-29T10:35:20.535Z,44.10
2023-04-29T10:37:48.818Z,44.70
2023-04-29T10:40:18.384Z,43.70
2023-04-29T10:42:46.890Z,43.80
2023-04-29T10:45:18.427Z,43.80
2023-04-29T10:48:06.713Z,44.20
2023-04-29T10:50:34.580Z,44.20
2023-04-29T10:53:05.270Z,43.90
2023-04-29T10:55:35.890Z,43.60
2023-04-29T10:58:03.459Z,43.70
2023-04-29T11:00:31.408Z,43.10
2023-04-29T11:02:59.255Z,43.10
2023-04-29T11:05:36.350Z,43.10
2023-04-29T11:08:09.345Z,42.90
2023-04-29T11:10:36.988Z,43.30
2023-04-29T11:13:22.915Z,42.60
2023-04-29T11:15:51.177Z,43.20
2023-04-29T11:18:18.332Z,43.60
2023-04-29T11:21:03.742Z,43.10
2023-04-29T11:23:30.828Z,43.20
2023-04-29T11:25:57.626Z,42.20
2023-04-29T11:28:24.461Z,42.40
2023-04-29T11:30:51.564Z,42.70
2023-04-29T11:33:19.836Z,42.00
2023-04-29T11:35:47.487Z,42.60
2023-04-29T11:38:14.273Z,42.40
2023-04-29T11:40:50.601Z,42.70
2023-04-29T11:43:18.555Z,42.60
2023-04-29T11:45:46.464Z,42.60
2023-04-29T11:48:19.680Z,42.00
2023-04-29T11:50:47.338Z,42.30
2023-04-29T11:53:14.308Z,41.90
2023-04-29T11:55:45.033Z,42.40
2023-04-29T11:58:12.210Z,42.30
2023-04-29T12:00:39.020Z,42.10
2023-04-29T12:03:16.034Z,41.70
2023-04-29T12:05:56.102Z,41.50
2023-04-29T12:08:23.554Z,41.90
2023-04-29T12:10:50.736Z,41.40
2023-04-29T12:13:18.087Z,41.20
2023-04-29T12:15:45.637Z,41.40
2023-04-29T12:18:12.885Z,41.20
2023-04-29T12:20:40.219Z,41.30
2023-04-29T12:23:22.646Z,41.00
2023-04-29T12:25:53.179Z,41.60
2023-04-29T12:28:20.522Z,41.00
2023-04-29T12:30:47.995Z,40.90
2023-04-29T12:33:25.504Z,41.30
2023-04-29T12:35:53.030Z,41.40
2023-04-29T12:38:23.137Z,41.20
2023-04-29T12:40:51.126Z,40.90
2023-04-29T12:43:19.162Z,40.90
2023-04-29T12:45:46.063Z,40.90
2023-04-29T12:48:25.350Z,40.80
2023-04-29T12:50:58.499Z,41.00
2023-04-29T12:53:26.041Z,40.90
2023-04-29T12:55:52.820Z,41.30
2023-04-29T12:58:21.139Z,41.10
2023-04-29T13:00:47.962Z,41.00
2023-04-29T13:03:15.320Z,41.20
2023-04-29T13:05:43.001Z,41.30
2023-04-29T13:08:09.915Z,40.80
2023-04-29T13:10:36.749Z,41.00
2023-04-29T13:13:04.146Z,40.70
2023-04-29T13:15:31.051Z,40.90
2023-04-29T13:17:58.749Z,40.80
2023-04-29T13:20:25.681Z,40.80
2023-04-29T13:22:52.584Z,40.70
2023-04-29T13:25:19.436Z,40.30
2023-04-29T13:27:46.572Z,40.50
2023-04-29T13:30:13.480Z,40.30
2023-04-29T13:32:46.520Z,40.40
2023-04-29T13:35:20.768Z,40.10
2023-04-29T13:37:48.553Z,39.40
2023-04-29T13:40:20.375Z,39.60
2023-04-29T13:42:50.466Z,39.70
2023-04-29T13:45:23.554Z,39.70
2023-04-29T13:51:00.869Z,39.20
2023-04-29T13:53:41.262Z,38.90
2023-04-29T13:58:43.452Z,38.80
2023-04-29T14:01:48.111Z,38.80
2023-04-29T14:04:01.726Z,38.20
2023-04-29T14:06:29.396Z,38.30
2023-04-29T14:08:56.141Z,39.20
2023-04-29T14:11:23.929Z,38.70
2023-04-29T14:13:51.881Z,38.90
2023-04-29T14:16:18.726Z,38.50
2023-04-29T14:18:45.706Z,39.30
2023-04-29T14:21:12.644Z,39.50
2023-04-29T14:23:39.838Z,39.90
2023-04-29T14:26:26.506Z,39.90
2023-04-29T14:28:57.647Z,39.30
2023-04-29T14:31:29.883Z,39.60
2023-04-29T14:33:57.508Z,39.80
2023-04-29T14:36:24.604Z,39.40
2023-04-29T14:38:51.486Z,38.90
2023-04-29T14:41:18.373Z,39.00
2023-04-29T14:43:45.275Z,39.30
2023-04-29T14:46:12.352Z,38.80
2023-04-29T14:48:39.174Z,38.40
2023-04-29T14:51:06.374Z,38.20
2023-04-29T14:53:33.871Z,38.10
2023-04-29T14:56:00.932Z,38.10
2023-04-29T14:58:27.771Z,38.90
2023-04-29T15:00:56.752Z,38.90
2023-04-29T15:03:23.619Z,38.90
2023-04-29T15:05:51.513Z,39.20
2023-04-29T15:08:19.387Z,39.10
2023-04-29T15:10:50.190Z,38.40
2023-04-29T15:13:17.176Z,38.90
2023-04-29T15:15:44.017Z,38.90
2023-04-29T15:18:10.915Z,39.70
2023-04-29T15:20:37.998Z,38.90
2023-04-29T15:23:05.580Z,39.00
2023-04-29T15:25:36.200Z,40.00
2023-04-29T15:28:04.810Z,39.90
2023-04-29T15:30:32.269Z,39.40
2023-04-29T15:32:59.340Z,39.40
2023-04-29T15:35:26.401Z,39.50
2023-04-29T15:37:53.214Z,39.40
2023-04-29T15:40:20.341Z,39.60
2023-04-29T15:42:47.276Z,39.90
2023-04-29T15:45:14.228Z,39.90
2023-04-29T15:47:40.975Z,39.30
2023-04-29T15:50:09.509Z,38.90
2023-04-29T15:52:37.066Z,38.60
2023-04-29T15:55:04.942Z,38.10
2023-04-29T15:57:31.702Z,37.40
2023-04-29T15:59:58.654Z,37.30
2023-04-29T16:02:25.566Z,37.20
2023-04-29T16:04:52.657Z,36.70
2023-04-29T16:07:19.401Z,37.10
2023-04-29T16:09:46.965Z,37.60
2023-04-29T16:12:14.042Z,37.40
2023-04-29T16:14:41.012Z,37.90
2023-04-29T16:17:07.997Z,38.50
2023-04-29T16:19:36.833Z,39.50
2023-04-29T16:22:04.485Z,40.30
2023-04-29T16:24:31.443Z,40.70
2023-04-29T16:26:58.957Z,40.90
2023-04-29T16:29:26.204Z,40.60
2023-04-29T16:31:53.318Z,40.70
2023-04-29T16:34:20.490Z,41.00
2023-04-29T16:36:47.410Z,41.00
2023-04-29T16:39:14.343Z,41.50
2023-04-29T16:41:41.202Z,41.90
2023-04-29T16:44:08.695Z,42.30
2023-04-29T16:46:36.709Z,42.60
2023-04-29T16:49:03.684Z,42.70
2023-04-29T16:51:33.481Z,42.00
2023-04-29T16:54:00.520Z,42.30
2023-04-29T16:56:27.718Z,42.50
2023-04-29T16:58:54.799Z,42.70
2023-04-29T17:01:21.693Z,42.50
2023-04-29T17:03:49.079Z,42.70
2023-04-29T17:06:16.170Z,43.30
2023-04-29T17:08:44.211Z,43.00
2023-04-29T17:11:11.171Z,43.50
2023-04-29T17:13:37.959Z,43.10
2023-04-29T17:16:05.027Z,43.00
2023-04-29T17:18:31.849Z,43.20
2023-04-29T17:20:59.417Z,43.10
2023-04-29T17:23:26.363Z,43.00
2023-04-29T17:25:54.727Z,43.30
2023-04-29T17:28:21.742Z,42.90
2023-04-29T17:30:48.604Z,43.00
2023-04-29T17:33:17.420Z,43.30
2023-04-29T17:35:45.250Z,43.40
2023-04-29T17:38:12.291Z,43.50
2023-04-29T17:40:39.358Z,43.60
2023-04-29T17:43:06.353Z,44.00
2023-04-29T17:45:33.564Z,44.00
2023-04-29T17:48:01.476Z,44.40
2023-04-29T17:50:28.333Z,44.70
2023-04-29T17:52:56.230Z,44.50
2023-04-29T17:55:24.265Z,44.80
2023-04-29T17:57:51.030Z,44.90
2023-04-29T18:00:18.263Z,45.00
2023-04-29T18:02:45.175Z,45.10
2023-04-29T18:05:12.263Z,45.40
2023-04-29T18:07:41.094Z,45.40
2023-04-29T18:10:08.406Z,45.80
2023-04-29T18:12:35.445Z,45.10
2023-04-29T18:15:05.966Z,45.20
2023-04-29T18:17:33.819Z,45.40
2023-04-29T18:20:00.918Z,45.70
2023-04-29T18:22:27.629Z,45.60
2023-04-29T18:24:54.440Z,45.60
2023-04-29T18:27:21.985Z,45.60
2023-04-29T18:29:49.088Z,45.90
2023-04-29T18:32:16.133Z,46.10
2023-04-29T18:34:42.927Z,46.20
2023-04-29T18:37:09.667Z,46.10
2023-04-29T18:39:36.739Z,46.40
2023-04-29T18:42:06.638Z,46.30
2023-04-29T18:44:33.430Z,46.20
2023-04-29T18:47:00.284Z,46.20
2023-04-29T18:49:27.076Z,46.20
2023-04-29T18:51:53.867Z,46.20
2023-04-29T18:54:20.669Z,46.20
2023-04-29T18:56:48.221Z,46.40
2023-04-29T18:59:19.324Z,46.50
2023-04-29T19:01:47.214Z,46.30
2023-04-29T19:04:15.628Z,46.50
2023-04-29T19:06:43.012Z,46.40
2023-04-29T19:09:11.102Z,46.70
2023-04-29T19:11:38.575Z,47.00
2023-04-29T19:14:06.518Z,46.90
2023-04-29T19:16:35.482Z,47.00
2023-04-29T19:19:04.431Z,47.30
2023-04-29T19:21:33.437Z,47.60
2023-04-29T19:24:00.616Z,47.80
2023-04-29T19:26:28.948Z,47.70
2023-04-29T19:28:55.813Z,47.70
2023-04-29T19:31:23.013Z,47.30
2023-04-29T19:33:52.079Z,47.50
2023-04-29T19:36:19.358Z,47.60
2023-04-29T19:38:46.984Z,47.70
2023-04-29T19:41:13.840Z,47.60
2023-04-29T19:43:40.656Z,48.30
2023-04-29T19:46:07.528Z,48.20
2023-04-29T19:48:34.310Z,48.50
2023-04-29T19:51:01.463Z,48.30
2023-04-29T19:53:28.276Z,48.50
2023-04-29T19:55:55.434Z,48.70
2023-04-29T19:58:22.161Z,48.80
2023-04-29T20:00:49.057Z,48.80
2023-04-29T20:03:16.498Z,48.80
2023-04-29T20:05:43.447Z,49.00
2023-04-29T20:08:10.312Z,49.10
2023-04-29T20:10:38.443Z,49.40
2023-04-29T20:13:05.295Z,48.90
2023-04-29T20:15:32.239Z,48.60
2023-04-29T20:17:59.248Z,48.80
2023-04-29T20:20:26.130Z,49.10
2023-04-29T20:22:57.822Z,48.90
2023-04-29T20:25:25.746Z,49.40
2023-04-29T20:27:53.741Z,49.30
2023-04-29T20:30:21.265Z,49.70
2023-04-29T20:32:48.397Z,49.40
2023-04-29T20:35:15.993Z,49.40
2023-04-29T20:37:42.908Z,49.70
2023-04-29T20:40:10.304Z,49.60
2023-04-29T20:42:37.054Z,49.70
2023-04-29T20:45:04.772Z,49.90
2023-04-29T20:47:32.261Z,50.10
2023-04-29T20:49:59.530Z,50.50
2023-04-29T20:52:27.689Z,50.50
2023-04-29T20:54:54.918Z,50.50
2023-04-29T20:57:21.713Z,50.50
2023-04-29T20:59:48.630Z,50.80
2023-04-29T21:02:15.665Z,50.90
2023-04-29T21:04:42.643Z,51.20
2023-04-29T21:07:10.251Z,51.00
2023-04-29T21:09:37.274Z,51.20
2023-04-29T21:12:05.522Z,51.40
2023-04-29T21:14:32.671Z,51.20
2023-04-29T21:16:59.530Z,51.40
2023-04-29T21:19:26.295Z,51.20
2023-04-29T21:21:53.107Z,51.30
2023-04-29T21:24:20.060Z,51.20
2023-04-29T21:26:47.440Z,51.50
2023-04-29T21:29:14.342Z,51.60
2023-04-29T21:31:41.449Z,51.80
2023-04-29T21:34:08.379Z,51.70
2023-04-29T21:36:35.633Z,51.90
2023-04-29T21:39:02.621Z,51.90
2023-04-29T21:41:30.857Z,51.40
2023-04-29T21:43:58.663Z,50.70
2023-04-29T21:46:26.958Z,50.70
2023-04-29T21:48:54.124Z,50.70
2023-04-29T21:51:22.772Z,50.60
2023-04-29T21:53:50.381Z,50.70
2023-04-29T21:56:17.222Z,50.70
2023-04-29T21:58:44.844Z,50.80
2023-04-29T22:01:27.679Z,51.30
2023-04-29T22:03:57.433Z,51.20
2023-04-29T22:06:24.405Z,51.00
2023-04-29T22:08:51.272Z,51.00
2023-04-29T22:11:18.398Z,51.10
2023-04-29T22:13:46.133Z,51.10
2023-04-29T22:16:13.021Z,51.00
2023-04-29T22:18:39.920Z,50.80
2023-04-29T22:21:07.297Z,50.70
2023-04-29T22:23:34.107Z,50.80
2023-04-29T22:26:01.149Z,51.20
2023-04-29T22:28:27.838Z,51.00
2023-04-29T22:30:54.790Z,50.90
2023-04-29T22:33:21.877Z,51.10
2023-04-29T22:35:48.811Z,51.00
2023-04-29T22:38:15.636Z,51.20
2023-04-29T22:40:48.500Z,51.00
2023-04-29T22:43:15.603Z,51.00
2023-04-29T22:45:42.371Z,51.10
2023-04-29T22:48:09.163Z,51.40
2023-04-29T22:50:35.975Z,51.60
2023-04-29T22:53:02.732Z,51.70
2023-04-29T22:55:29.530Z,51.80
2023-04-29T22:57:56.437Z,51.60
2023-04-29T23:00:23.214Z,51.70
2023-04-29T23:02:50.078Z,51.80
2023-04-29T23:05:17.802Z,52.30
2023-04-29T23:07:44.956Z,51.90
2023-04-29T23:10:11.791Z,52.30
2023-04-29T23:12:39.161Z,52.50
2023-04-29T23:15:06.805Z,52.60
2023-04-29T23:17:37.449Z,52.70
2023-04-29T23:20:04.674Z,52.80
2023-04-29T23:22:31.376Z,53.90
2023-04-29T23:24:58.203Z,54.10
2023-04-29T23:27:25.088Z,53.70
2023-04-29T23:29:52.434Z,53.70
2023-04-29T23:32:20.661Z,54.70
2023-04-29T23:34:47.946Z,53.70
2023-04-29T23:37:14.717Z,53.80
2023-04-29T23:39:41.414Z,54.20
2023-04-29T23:42:08.238Z,54.40
2023-04-29T23:44:35.012Z,54.80
2023-04-29T23:47:01.768Z,55.00
2023-04-29T23:49:28.621Z,55.00
2023-04-29T23:51:55.985Z,55.40
2023-04-29T23:54:23.187Z,55.40
2023-04-29T23:56:50.013Z,55.20
2023-04-29T23:59:16.737Z,55.20
